createdAt,value
2022-12-05T00:00:55.337Z,99016.23
2022-12-05T00:03:22.362Z,99013.08
2022-12-05T00:05:49.703Z,99014.94
2022-12-05T00:08:16.694Z,99017.32
2022-12-05T00:10:44.124Z,99015.27
2022-12-05T00:13:10.874Z,99014.09
2022-12-05T00:15:39.569Z,99007.84
2022-12-05T00:18:07.520Z,99010.11
2022-12-05T00:20:34.228Z,99006.05
2022-12-05T00:23:01.459Z,99003.23
2022-12-05T00:25:28.358Z,98997.56
2022-12-05T00:27:55.153Z,98996.58
2022-12-05T00:30:21.880Z,98995.41
2022-12-05T00:32:48.592Z,98990.45
2022-12-05T00:35:15.370Z,98988.99
2022-12-05T00:37:42.075Z,98996.33
2022-12-05T00:40:09.494Z,99005.30
2022-12-05T00:42:36.449Z,99001.40
2022-12-05T00:45:03.590Z,98993.95
2022-12-05T00:47:30.363Z,98991.10
2022-12-05T00:49:57.314Z,98996.82
2022-12-05T00:52:24.265Z,98996.34
2022-12-05T00:54:51.000Z,98989.04
2022-12-05T00:57:17.738Z,98990.57
2022-12-05T00:59:44.708Z,98993.99
2022-12-05T01:02:11.424Z,98991.75
2022-12-05T01:04:38.113Z,98989.25
2022-12-05T01:07:04.902Z,98977.16
2022-12-05T01:09:31.759Z,98969.31
2022-12-05T01:11:58.504Z,98976.05
2022-12-05T01:14:26.597Z,98983.36
2022-12-05T01:16:55.332Z,98985.09
2022-12-05T01:19:25.817Z,98978.48
2022-12-05T01:21:53.746Z,98973.73
2022-12-05T01:24:21.824Z,98973.80
2022-12-05T01:26:48.874Z,98984.62
2022-12-05T01:29:18.614Z,98980.41
2022-12-05T01:31:46.363Z,98979.48
2022-12-05T01:34:16.105Z,98978.42
2022-12-05T01:36:43.105Z,98972.39
2022-12-05T01:39:11.676Z,98972.86
2022-12-05T01:41:42.990Z,98968.84
2022-12-05T01:44:11.344Z,98960.34
2022-12-05T01:46:44.299Z,98963.67
2022-12-05T01:49:15.392Z,98958.18
2022-12-05T01:51:46.883Z,98959.54
2022-12-05T01:54:15.372Z,98965.90
2022-12-05T01:56:46.053Z,98971.91
2022-12-05T01:59:13.437Z,98974.25
2022-12-05T02:01:41.542Z,98974.14
2022-12-05T02:04:08.804Z,98968.20
2022-12-05T02:06:35.810Z,98968.02
2022-12-05T02:09:02.945Z,98965.77
2022-12-05T02:11:32.665Z,98958.16
2022-12-05T02:14:08.023Z,98953.38
2022-12-05T02:16:51.661Z,98952.61
2022-12-05T02:19:45.161Z,98946.48
2022-12-05T02:22:28.430Z,98955.46
2022-12-05T02:25:19.996Z,98960.09
2022-12-05T02:28:15.244Z,98962.84
2022-12-05T02:30:45.779Z,98956.41
2022-12-05T02:33:17.773Z,98952.43
2022-12-05T02:35:56.042Z,98946.46
2022-12-05T02:38:31.516Z,98954.30
2022-12-05T02:41:29.061Z,98953.70
2022-12-05T02:44:04.802Z,98956.20
2022-12-05T02:46:36.070Z,98958.39
2022-12-05T02:49:08.834Z,98955.63
2022-12-05T02:51:40.558Z,98958.34
2022-12-05T02:54:12.635Z,98961.02
2022-12-05T02:56:43.765Z,98963.73
2022-12-05T02:59:10.650Z,98968.96
2022-12-05T03:01:37.733Z,98966.96
2022-12-05T03:04:07.827Z,98971.68
2022-12-05T03:06:40.014Z,98970.66
2022-12-05T03:09:13.149Z,98965.86
2022-12-05T03:11:54.661Z,98965.60
2022-12-05T03:14:28.953Z,98959.79
2022-12-05T03:16:59.134Z,98960.77
2022-12-05T03:19:33.021Z,98968.00
2022-12-05T03:22:03.556Z,98966.89
2022-12-05T03:24:31.852Z,98970.06
2022-12-05T03:27:25.777Z,98972.03
2022-12-05T03:30:03.811Z,98976.90
2022-12-05T03:32:42.563Z,98973.58
2022-12-05T03:35:24.517Z,98971.59
2022-12-05T03:37:56.833Z,98969.52
2022-12-05T03:40:32.793Z,98963.59
2022-12-05T03:43:23.535Z,98963.07
2022-12-05T03:45:59.668Z,98968.58
2022-12-05T03:48:31.911Z,98975.63
2022-12-05T03:51:00.741Z,98972.35
2022-12-05T03:53:34.509Z,98983.89
2022-12-05T03:56:08.089Z,98974.40
2022-12-05T03:58:39.821Z,98970.54
2022-12-05T04:01:08.674Z,98971.01
2022-12-05T04:03:42.667Z,98959.83
2022-12-05T04:06:20.374Z,98955.38
2022-12-05T04:08:52.986Z,98957.71
2022-12-05T04:11:25.295Z,98961.98
2022-12-05T04:14:00.972Z,98961.86
2022-12-05T04:16:55.591Z,98963.35
2022-12-05T04:19:26.422Z,98954.28
2022-12-05T04:21:56.053Z,98940.33
2022-12-05T04:24:43.713Z,98930.63
2022-12-05T04:27:26.581Z,98928.17
2022-12-05T04:30:02.820Z,98932.79
2022-12-05T04:32:40.029Z,98935.33
2022-12-05T04:35:13.838Z,98931.95
2022-12-05T04:37:45.018Z,98930.52
2022-12-05T04:40:20.224Z,98934.59
2022-12-05T04:42:51.320Z,98932.64
2022-12-05T04:45:21.438Z,98919.23
2022-12-05T04:47:53.612Z,98915.98
2022-12-05T04:50:23.181Z,98915.15
2022-12-05T04:52:54.047Z,98906.35
2022-12-05T04:55:26.158Z,98903.46
2022-12-05T04:58:00.932Z,98902.78
2022-12-05T05:00:30.096Z,98902.20
2022-12-05T05:03:22.625Z,98902.10
2022-12-05T05:05:53.226Z,98904.64
2022-12-05T05:08:24.148Z,98906.55
2022-12-05T05:11:13.208Z,98909.34
2022-12-05T05:13:40.586Z,98908.36
2022-12-05T05:16:08.214Z,98909.65
2022-12-05T05:18:35.053Z,98907.78
2022-12-05T05:21:01.903Z,98904.10
2022-12-05T05:23:28.646Z,98891.77
2022-12-05T05:25:56.755Z,98903.71
2022-12-05T05:28:23.799Z,98907.75
2022-12-05T05:30:50.630Z,98907.81
2022-12-05T05:33:17.477Z,98914.34
2022-12-05T05:35:44.269Z,98910.30
2022-12-05T05:38:11.071Z,98910.74
2022-12-05T05:40:37.893Z,98916.46
2022-12-05T05:43:04.983Z,98921.23
2022-12-05T05:45:31.735Z,98917.45
2022-12-05T05:47:58.500Z,98921.33
2022-12-05T05:50:25.391Z,98919.25
2022-12-05T05:52:52.158Z,98922.00
2022-12-05T05:55:19.087Z,98916.49
2022-12-05T05:57:46.294Z,98914.55
2022-12-05T06:00:14.347Z,98921.45
2022-12-05T06:02:41.148Z,98922.74
2022-12-05T06:05:08.447Z,98912.89
2022-12-05T06:07:35.247Z,98914.55
2022-12-05T06:10:02.253Z,98921.34
2022-12-05T06:12:29.206Z,98922.89
2022-12-05T06:14:55.974Z,98922.46
2022-12-05T06:17:22.732Z,98913.07
2022-12-05T06:19:49.457Z,98913.88
2022-12-05T06:22:16.208Z,98920.02
2022-12-05T06:24:42.931Z,98918.79
2022-12-05T06:27:09.692Z,98918.66
2022-12-05T06:29:36.472Z,98923.16
2022-12-05T06:32:03.629Z,98922.20
2022-12-05T06:34:32.596Z,98921.00
2022-12-05T06:37:00.155Z,98917.65
2022-12-05T06:39:28.089Z,98917.05
2022-12-05T06:41:55.026Z,98922.52
2022-12-05T06:44:22.175Z,98918.68
2022-12-05T06:46:49.261Z,98913.92
2022-12-05T06:49:16.015Z,98912.49
2022-12-05T06:51:42.711Z,98920.51
2022-12-05T06:54:12.024Z,98926.15
2022-12-05T06:56:38.954Z,98922.65
2022-12-05T06:59:06.038Z,98921.59
2022-12-05T07:01:41.760Z,98926.52
2022-12-05T07:04:14.330Z,98929.18
2022-12-05T07:06:48.754Z,98934.88
2022-12-05T07:09:19.675Z,98940.40
2022-12-05T07:11:48.367Z,98944.73
2022-12-05T07:14:38.797Z,98937.29
2022-12-05T07:17:01.991Z,98937.05
2022-12-05T07:19:28.807Z,98942.92
2022-12-05T07:21:55.544Z,98946.94
2022-12-05T07:24:22.343Z,98952.48
2022-12-05T07:26:49.050Z,98959.88
2022-12-05T07:29:15.799Z,98953.36
2022-12-05T07:31:42.647Z,98949.38
2022-12-05T07:34:09.406Z,98937.45
2022-12-05T07:36:36.610Z,98941.33
2022-12-05T07:39:04.042Z,98936.77
2022-12-05T07:41:33.175Z,98947.48
2022-12-05T07:44:00.857Z,98935.86
2022-12-05T07:46:29.151Z,98950.14
2022-12-05T07:48:56.232Z,98943.02
2022-12-05T07:51:23.296Z,98942.02
2022-12-05T07:53:50.164Z,98942.27
2022-12-05T07:56:18.291Z,98936.35
2022-12-05T07:58:46.997Z,98935.71
2022-12-05T08:01:17.205Z,98935.23
2022-12-05T08:03:44.602Z,98931.98
2022-12-05T08:06:15.596Z,98931.33
2022-12-05T08:08:43.344Z,98932.73
2022-12-05T08:11:14.236Z,98931.27
2022-12-05T08:13:42.015Z,98928.37
2022-12-05T08:16:12.450Z,98926.63
2022-12-05T08:18:39.696Z,98934.86
2022-12-05T08:21:09.680Z,98934.23
2022-12-05T08:23:37.302Z,98927.39
2022-12-05T08:26:05.426Z,98930.09
2022-12-05T08:28:32.815Z,98922.77
2022-12-05T08:31:16.504Z,98919.29
2022-12-05T08:33:43.914Z,98924.69
2022-12-05T08:36:15.453Z,98934.36
2022-12-05T08:38:43.510Z,98933.42
2022-12-05T08:41:13.283Z,98936.11
2022-12-05T08:43:40.810Z,98930.18
2022-12-05T08:46:08.336Z,98929.45
2022-12-05T08:48:36.181Z,98929.80
2022-12-05T08:51:08.539Z,98920.44
2022-12-05T08:53:42.484Z,98912.75
2022-12-05T08:56:11.398Z,98918.77
2022-12-05T08:58:38.876Z,98916.98
2022-12-05T09:01:13.151Z,98916.94
2022-12-05T09:03:47.301Z,98909.10
2022-12-05T09:06:20.854Z,98911.41
2022-12-05T09:08:48.783Z,98905.58
2022-12-05T09:11:18.878Z,98904.77
2022-12-05T09:13:47.601Z,98900.52
2022-12-05T09:16:18.364Z,98901.22
2022-12-05T09:18:45.561Z,98896.39
2022-12-05T09:21:15.794Z,98892.58
2022-12-05T09:23:43.351Z,98894.48
2022-12-05T09:26:12.251Z,98894.76
2022-12-05T09:28:39.931Z,98900.12
2022-12-05T09:31:09.760Z,98897.05
2022-12-05T09:33:38.079Z,98891.52
2022-12-05T09:36:08.145Z,98888.53
2022-12-05T09:38:35.575Z,98889.45
2022-12-05T09:41:05.869Z,98886.91
2022-12-05T09:43:54.333Z,98886.55
2022-12-05T09:46:26.232Z,98879.38
2022-12-05T09:48:54.846Z,98877.30
2022-12-05T09:51:22.028Z,98875.90
2022-12-05T09:53:49.597Z,98880.77
2022-12-05T09:56:32.974Z,98881.06
2022-12-05T09:59:01.283Z,98879.55
2022-12-05T10:01:29.224Z,98875.48
2022-12-05T10:04:04.169Z,98868.06
2022-12-05T10:06:55.254Z,98868.66
2022-12-05T10:09:37.442Z,98867.69
2022-12-05T10:12:18.540Z,98867.58
2022-12-05T10:14:51.627Z,98867.52
2022-12-05T10:17:28.935Z,98864.27
2022-12-05T10:20:00.639Z,98857.42
2022-12-05T10:22:39.616Z,98855.02
2022-12-05T10:25:06.975Z,98860.32
2022-12-05T10:27:41.231Z,98861.26
2022-12-05T10:30:21.325Z,98863.35
2022-12-05T10:32:53.454Z,98859.10
2022-12-05T10:35:23.809Z,98859.13
2022-12-05T10:37:54.591Z,98858.97
2022-12-05T10:40:21.402Z,98855.52
2022-12-05T10:42:49.980Z,98856.02
2022-12-05T10:45:21.371Z,98858.52
2022-12-05T10:47:49.953Z,98852.64
2022-12-05T10:50:24.033Z,98854.09
2022-12-05T10:52:53.571Z,98852.44
2022-12-05T10:55:20.894Z,98851.79
2022-12-05T10:58:17.861Z,98853.27
2022-12-05T11:00:48.379Z,98850.38
2022-12-05T11:03:31.144Z,98847.07
2022-12-05T11:06:00.845Z,98842.62
2022-12-05T11:08:55.970Z,98835.82
2022-12-05T11:11:28.811Z,98833.83
2022-12-05T11:13:59.003Z,98831.39
2022-12-05T11:16:30.064Z,98828.13
2022-12-05T11:18:57.193Z,98829.61
2022-12-05T11:21:24.136Z,98831.66
2022-12-05T11:23:50.992Z,98828.85
2022-12-05T11:26:19.292Z,98826.61
2022-12-05T11:28:46.491Z,98824.11
2022-12-05T11:31:14.276Z,98822.20
2022-12-05T11:33:41.530Z,98822.15
2022-12-05T11:36:28.342Z,98824.28
2022-12-05T11:38:55.838Z,98822.72
2022-12-05T11:41:37.149Z,98821.98
2022-12-05T11:44:19.601Z,98819.02
2022-12-05T11:47:12.175Z,98825.34
2022-12-05T11:50:10.280Z,98825.88
2022-12-05T11:52:52.541Z,98823.66
2022-12-05T11:55:25.108Z,98819.50
2022-12-05T11:58:14.573Z,98823.39
2022-12-05T12:01:13.560Z,98821.64
2022-12-05T12:03:55.642Z,98824.83
2022-12-05T12:06:31.210Z,98824.21
2022-12-05T12:09:29.522Z,98821.90
2022-12-05T12:12:27.443Z,98823.63
2022-12-05T12:15:11.086Z,98819.52
2022-12-05T12:17:44.466Z,98819.59
2022-12-05T12:20:18.851Z,98821.17
2022-12-05T12:22:52.789Z,98821.08
2022-12-05T12:25:38.300Z,98820.77
2022-12-05T12:28:21.721Z,98821.57
2022-12-05T12:31:02.865Z,98828.71
2022-12-05T12:33:36.173Z,98828.85
2022-12-05T12:36:17.145Z,98827.79
2022-12-05T12:39:04.604Z,98824.53
2022-12-05T12:41:49.836Z,98820.08
2022-12-05T12:44:35.155Z,98824.39
2022-12-05T12:47:06.396Z,98811.80
2022-12-05T12:49:50.997Z,98813.77
2022-12-05T12:52:22.006Z,98819.05
2022-12-05T12:55:16.613Z,98814.14
2022-12-05T12:57:45.128Z,98824.66
2022-12-05T13:00:21.585Z,98815.72
2022-12-05T13:02:51.401Z,98821.35
2022-12-05T13:05:38.681Z,98815.58
2022-12-05T13:08:11.743Z,98821.02
2022-12-05T13:10:44.081Z,98820.33
2022-12-05T13:13:18.208Z,98825.23
2022-12-05T13:15:48.322Z,98824.77
2022-12-05T13:18:18.708Z,98827.59
2022-12-05T13:20:49.595Z,98831.30
2022-12-05T13:23:20.410Z,98829.83
2022-12-05T13:25:48.934Z,98824.88
2022-12-05T13:28:34.964Z,98825.17
2022-12-05T13:31:03.965Z,98820.80
2022-12-05T13:33:37.214Z,98818.72
2022-12-05T13:36:23.519Z,98816.64
2022-12-05T13:39:12.453Z,98821.30
2022-12-05T13:41:57.827Z,98829.45
2022-12-05T13:44:31.944Z,98828.93
2022-12-05T13:47:00.295Z,98831.22
2022-12-05T13:49:40.895Z,98833.41
2022-12-05T13:52:14.702Z,98837.86
2022-12-05T13:54:46.596Z,98841.66
2022-12-05T13:57:45.810Z,98837.40
2022-12-05T14:00:12.577Z,98838.98
2022-12-05T14:02:43.997Z,98838.77
2022-12-05T14:05:18.609Z,98840.45
2022-12-05T14:07:47.029Z,98841.29
2022-12-05T14:10:16.816Z,98842.58
2022-12-05T14:12:49.346Z,98844.23
2022-12-05T14:15:34.044Z,98840.29
2022-12-05T14:18:06.047Z,98840.70
2022-12-05T14:20:55.037Z,98841.98
2022-12-05T14:23:52.416Z,98847.30
2022-12-05T14:26:38.005Z,98848.73
2022-12-05T14:29:26.790Z,98851.00
2022-12-05T14:32:09.000Z,98848.02
2022-12-05T14:34:38.587Z,98843.09
2022-12-05T14:37:09.086Z,98847.23
2022-12-05T14:39:42.344Z,98858.47
2022-12-05T14:42:27.985Z,98856.15
2022-12-05T14:44:58.559Z,98858.23
2022-12-05T14:47:29.055Z,98851.58
2022-12-05T14:50:02.978Z,98857.15
2022-12-05T14:52:31.127Z,98852.02
2022-12-05T14:55:06.105Z,98851.48
2022-12-05T14:57:38.253Z,98849.58
2022-12-05T15:00:08.640Z,98846.09
2022-12-05T15:02:45.089Z,98844.87
2022-12-05T15:05:26.045Z,98843.19
2022-12-05T15:07:55.078Z,98839.61
2022-12-05T15:10:33.580Z,98835.52
2022-12-05T15:13:05.382Z,98836.14
2022-12-05T15:15:36.645Z,98837.27
2022-12-05T15:18:11.141Z,98835.51
2022-12-05T15:20:46.472Z,98830.74
2022-12-05T15:23:44.436Z,98826.79
2022-12-05T15:26:46.209Z,98826.36
2022-12-05T15:29:15.684Z,98826.71
2022-12-05T15:31:48.947Z,98822.92
2022-12-05T15:34:22.472Z,98823.42
2022-12-05T15:37:07.213Z,98824.41
2022-12-05T15:39:55.662Z,98821.80
2022-12-05T15:42:29.478Z,98823.67
2022-12-05T15:45:12.559Z,98820.77
2022-12-05T15:47:44.220Z,98821.11
2022-12-05T15:50:14.587Z,98820.86
2022-12-05T15:52:51.549Z,98821.07
2022-12-05T15:55:24.080Z,98815.22
2022-12-05T15:57:59.058Z,98817.36
2022-12-05T16:00:26.737Z,98822.22
2022-12-05T16:03:05.447Z,98821.02
2022-12-05T16:05:39.927Z,98827.42
2022-12-05T16:08:08.538Z,98825.65
2022-12-05T16:10:36.065Z,98824.66
2022-12-05T16:13:06.429Z,98822.96
2022-12-05T16:15:34.015Z,98821.00
2022-12-05T16:18:03.283Z,98817.94
2022-12-05T16:20:33.007Z,98817.13
2022-12-05T16:23:04.812Z,98813.77
2022-12-05T16:25:35.312Z,98809.25
2022-12-05T16:28:15.241Z,98810.02
2022-12-05T16:30:53.881Z,98811.11
2022-12-05T16:33:21.237Z,98811.00
2022-12-05T16:35:50.378Z,98809.52
2022-12-05T16:38:17.231Z,98808.96
2022-12-05T16:40:45.007Z,98808.20
2022-12-05T16:43:25.902Z,98806.64
2022-12-05T16:45:54.816Z,98801.89
2022-12-05T16:48:23.033Z,98800.38
2022-12-05T16:50:53.543Z,98798.36
2022-12-05T16:53:28.585Z,98798.93
2022-12-05T16:55:56.085Z,98804.66
2022-12-05T16:58:27.110Z,98804.77
2022-12-05T17:01:01.646Z,98803.97
2022-12-05T17:03:36.239Z,98802.54
2022-12-05T17:06:03.782Z,98792.52
2022-12-05T17:08:30.503Z,98798.15
2022-12-05T17:10:58.097Z,98799.80
2022-12-05T17:13:25.414Z,98800.58
2022-12-05T17:15:52.356Z,98802.26
2022-12-05T17:18:23.272Z,98800.96
2022-12-05T17:20:55.884Z,98801.08
2022-12-05T17:23:22.597Z,98799.63
2022-12-05T17:25:51.936Z,98801.23
2022-12-05T17:28:19.027Z,98805.55
2022-12-05T17:30:45.740Z,98809.63
2022-12-05T17:33:14.645Z,98813.90
2022-12-05T17:35:41.990Z,98812.50
2022-12-05T17:38:10.828Z,98817.30
2022-12-05T17:40:38.489Z,98817.48
2022-12-05T17:43:06.107Z,98815.43
2022-12-05T17:45:33.529Z,98817.95
2022-12-05T17:48:00.273Z,98813.91
2022-12-05T17:50:28.018Z,98821.30
2022-12-05T17:52:56.983Z,98825.52
2022-12-05T17:55:28.602Z,98825.98
2022-12-05T17:57:55.931Z,98828.31
2022-12-05T18:00:24.390Z,98828.70
2022-12-05T18:02:52.736Z,98827.42
2022-12-05T18:05:21.842Z,98827.05
2022-12-05T18:07:48.659Z,98824.84
2022-12-05T18:10:19.224Z,98828.96
2022-12-05T18:12:47.552Z,98828.96
2022-12-05T18:15:15.466Z,98822.79
2022-12-05T18:17:43.563Z,98822.52
2022-12-05T18:20:25.650Z,98821.86
2022-12-05T18:22:52.392Z,98817.77
2022-12-05T18:25:19.129Z,98817.92
2022-12-05T18:27:45.974Z,98818.52
2022-12-05T18:30:13.345Z,98819.73
2022-12-05T18:32:40.052Z,98818.13
2022-12-05T18:35:12.704Z,98816.38
2022-12-05T18:37:40.292Z,98817.09
2022-12-05T18:40:09.440Z,98821.83
2022-12-05T18:42:52.235Z,98824.34
2022-12-05T18:45:19.121Z,98824.10
2022-12-05T18:47:45.845Z,98820.21
2022-12-05T18:50:12.714Z,98821.05
2022-12-05T18:52:39.833Z,98817.46
2022-12-05T18:55:17.336Z,98815.41
2022-12-05T18:57:50.671Z,98813.02
2022-12-05T19:00:32.838Z,98810.17
2022-12-05T19:02:59.691Z,98809.11
2022-12-05T19:05:26.429Z,98810.63
2022-12-05T19:07:54.378Z,98810.48
2022-12-05T19:10:21.262Z,98808.48
2022-12-05T19:12:48.028Z,98800.08
2022-12-05T19:15:15.424Z,98800.28
2022-12-05T19:17:57.816Z,98801.07
2022-12-05T19:20:24.522Z,98804.00
2022-12-05T19:22:54.145Z,98808.08
2022-12-05T19:25:53.995Z,98808.39
2022-12-05T19:28:20.804Z,98808.52
2022-12-05T19:30:47.519Z,98812.53
2022-12-05T19:33:14.238Z,98809.83
2022-12-05T19:35:40.924Z,98817.44
2022-12-05T19:38:07.932Z,98823.15
2022-12-05T19:40:35.255Z,98823.36
2022-12-05T19:43:03.780Z,98821.55
2022-12-05T19:45:30.841Z,98813.99
2022-12-05T19:47:58.188Z,98817.80
2022-12-05T19:50:40.271Z,98813.86
2022-12-05T19:53:07.338Z,98813.30
2022-12-05T19:55:34.031Z,98812.08
2022-12-05T19:58:00.756Z,98809.42
2022-12-05T20:00:44.556Z,98809.33
2022-12-05T20:03:12.435Z,98809.50
2022-12-05T20:05:39.313Z,98808.42
2022-12-05T20:08:06.082Z,98808.19
2022-12-05T20:10:34.322Z,98809.77
2022-12-05T20:13:05.444Z,98809.29
2022-12-05T20:15:47.844Z,98811.81
2022-12-05T20:18:15.543Z,98810.48
2022-12-05T20:20:42.261Z,98805.58
2022-12-05T20:23:24.366Z,98807.63
2022-12-05T20:25:51.117Z,98806.37
2022-12-05T20:28:18.967Z,98806.20
2022-12-05T20:30:45.954Z,98806.05
2022-12-05T20:33:12.750Z,98803.48
2022-12-05T20:35:39.415Z,98802.39
2022-12-05T20:38:06.333Z,98803.59
2022-12-05T20:40:33.054Z,98803.90
2022-12-05T20:43:00.638Z,98804.63
2022-12-05T20:45:27.343Z,98802.89
2022-12-05T20:47:54.322Z,98802.85
2022-12-05T20:50:21.043Z,98803.39
2022-12-05T20:52:47.704Z,98802.00
2022-12-05T20:55:14.418Z,98800.36
2022-12-05T20:57:41.289Z,98800.98
2022-12-05T21:00:08.715Z,98794.54
2022-12-05T21:02:35.453Z,98796.44
2022-12-05T21:05:02.225Z,98797.33
2022-12-05T21:07:28.907Z,98796.97
2022-12-05T21:09:55.687Z,98795.73
2022-12-05T21:12:22.684Z,98786.78
2022-12-05T21:14:49.444Z,98792.02
2022-12-05T21:17:16.190Z,98785.45
2022-12-05T21:19:43.358Z,98785.67
2022-12-05T21:22:10.103Z,98780.08
2022-12-05T21:24:36.781Z,98772.56
2022-12-05T21:27:03.658Z,98771.47
2022-12-05T21:29:30.532Z,98769.30
2022-12-05T21:31:57.302Z,98770.97
2022-12-05T21:34:24.372Z,98770.02
2022-12-05T21:36:51.796Z,98771.02
2022-12-05T21:39:18.640Z,98776.14
2022-12-05T21:41:45.378Z,98772.61
2022-12-05T21:44:12.293Z,98769.89
2022-12-05T21:46:39.080Z,98770.09
2022-12-05T21:49:06.471Z,98773.82
2022-12-05T21:51:33.218Z,98777.05
2022-12-05T21:53:59.983Z,98770.98
2022-12-05T21:56:26.813Z,98766.98
2022-12-05T21:58:53.858Z,98767.28
2022-12-05T22:01:23.207Z,98767.23
2022-12-05T22:03:52.876Z,98763.25
2022-12-05T22:06:20.007Z,98763.82
2022-12-05T22:08:46.727Z,98766.90
2022-12-05T22:11:17.770Z,98764.83
2022-12-05T22:13:45.194Z,98765.93
2022-12-05T22:16:13.073Z,98762.65
2022-12-05T22:18:40.114Z,98763.46
2022-12-05T22:21:11.264Z,98756.23
2022-12-05T22:23:37.971Z,98756.36
2022-12-05T22:26:08.939Z,98758.58
2022-12-05T22:28:36.207Z,98758.94
2022-12-05T22:31:06.055Z,98756.01
2022-12-05T22:33:35.527Z,98751.14
2022-12-05T22:36:04.421Z,98747.82
2022-12-05T22:38:33.390Z,98740.89
2022-12-05T22:41:02.530Z,98737.30
2022-12-05T22:43:31.188Z,98733.17
2022-12-05T22:45:58.126Z,98738.10
2022-12-05T22:48:26.407Z,98734.27
2022-12-05T22:50:54.264Z,98736.38
2022-12-05T22:53:22.852Z,98735.09
2022-12-05T22:55:50.591Z,98734.81
2022-12-05T22:58:18.209Z,98731.65
2022-12-05T23:00:46.252Z,98731.53
2022-12-05T23:03:13.135Z,98730.95
2022-12-05T23:05:41.733Z,98731.71
2022-12-05T23:08:08.560Z,98725.14
2022-12-05T23:10:35.404Z,98723.89
2022-12-05T23:13:02.087Z,98724.25
2022-12-05T23:15:28.895Z,98725.34
2022-12-05T23:17:56.313Z,98724.45
2022-12-05T23:20:23.160Z,98722.88
2022-12-05T23:22:50.257Z,98721.89
2022-12-05T23:25:17.065Z,98717.81
2022-12-05T23:27:44.180Z,98708.20
2022-12-05T23:30:11.882Z,98705.00
2022-12-05T23:32:38.551Z,98706.92
2022-12-05T23:35:05.950Z,98705.05
2022-12-05T23:37:32.610Z,98702.43
2022-12-05T23:39:59.610Z,98701.69
2022-12-05T23:43:03.336Z,98699.89
2022-12-05T23:45:30.002Z,98697.68
2022-12-05T23:47:59.395Z,98694.98
2022-12-05T23:50:28.608Z,98688.85
2022-12-05T23:52:55.301Z,98687.67
2022-12-05T23:55:21.973Z,98688.60
2022-12-05T23:57:48.696Z,98680.81
